Time;durP1;ratioP1;P1;durP2;ratioP2;P2;SDS_P1;SDS_P2;PMS_P1;PMS_P2;Temp;Humidity;BMP_temperature;BMP_pressure;BME280_temperature;BME280_humidity;BME280_pressure;Samples;Min_cycle;Max_cycle;Signal;HPM_P1;HPM_P2
2022/12/25 00:01:22;;;;;;;8.47;7.87;;;19.20;42.30;;;;;;5016716;28;20967;-64
2022/12/25 00:03:49;;;;;;;8.63;7.83;;;19.20;42.30;;;;;;5016371;28;20447;-67
2022/12/25 00:06:14;;;;;;;8.03;7.30;;;19.20;42.30;;;;;;5012648;28;20542;-64
2022/12/25 00:08:40;;;;;;;8.70;7.90;;;19.20;42.30;;;;;;5001893;28;20734;-68
2022/12/25 00:11:16;;;;;;;8.00;7.40;;;19.20;42.40;;;;;;5013073;28;20268;-65
2022/12/25 00:13:42;;;;;;;8.33;7.63;;;19.20;42.30;;;;;;5014414;28;20215;-70
2022/12/25 00:16:14;;;;;;;7.73;7.13;;;19.20;42.30;;;;;;5016347;28;20430;-64
2022/12/25 00:18:40;;;;;;;8.13;7.47;;;19.20;42.30;;;;;;5008499;28;20462;-67
2022/12/25 00:21:06;;;;;;;8.17;7.53;;;19.20;42.30;;;;;;5013073;28;20987;-64
2022/12/25 00:23:33;;;;;;;8.20;7.43;;;19.20;42.30;;;;;;5013915;28;20222;-64
2022/12/25 00:26:03;;;;;;;8.20;7.47;;;19.20;42.30;;;;;;5016433;28;20892;-69
2022/12/25 00:28:28;;;;;;;7.30;6.80;;;19.20;42.30;;;;;;5015678;28;20423;-65
2022/12/25 00:30:54;;;;;;;7.80;7.20;;;19.20;42.30;;;;;;5017200;28;20438;-64
2022/12/25 00:33:19;;;;;;;7.30;6.80;;;19.20;42.30;;;;;;5012669;28;20304;-67
2022/12/25 00:35:56;;;;;;;7.10;6.60;;;19.20;42.30;;;;;;5018061;28;20215;-67
2022/12/25 00:38:21;;;;;;;7.77;7.17;;;19.20;42.30;;;;;;5016570;28;20284;-66
2022/12/25 00:40:47;;;;;;;6.70;6.20;;;19.20;42.30;;;;;;5016274;28;20446;-65
2022/12/25 00:43:12;;;;;;;7.00;6.40;;;19.20;42.30;;;;;;5017978;28;20223;-69
2022/12/25 00:45:38;;;;;;;7.30;6.80;;;19.20;42.40;;;;;;5016794;28;20948;-64
2022/12/25 00:48:04;;;;;;;7.13;6.63;;;19.20;42.30;;;;;;5015040;28;20378;-64
2022/12/25 00:50:29;;;;;;;7.30;6.60;;;19.20;42.30;;;;;;5014820;28;20261;-65
2022/12/25 00:52:55;;;;;;;7.37;6.80;;;19.20;42.30;;;;;;5018035;28;20237;-67
2022/12/25 00:55:20;;;;;;;7.30;6.80;;;19.20;42.30;;;;;;5017672;28;20218;-64
2022/12/25 00:57:46;;;;;;;7.17;6.67;;;19.20;42.30;;;;;;5018474;28;20229;-64
2022/12/25 01:00:12;;;;;;;6.63;6.23;;;19.20;42.30;;;;;;5015141;28;20241;-70
2022/12/25 01:02:37;;;;;;;6.67;6.17;;;19.20;42.30;;;;;;5014109;28;20253;-65
2022/12/25 01:05:04;;;;;;;7.13;6.53;;;19.20;42.30;;;;;;5016371;28;21096;-68
2022/12/25 01:07:30;;;;;;;7.20;6.60;;;19.20;42.30;;;;;;5014836;28;20314;-66
2022/12/25 01:12:42;;;;;;;6.90;6.50;;;19.20;42.30;;;;;;5016805;28;20225;-66
2022/12/25 01:15:09;;;;;;;6.67;6.27;;;19.20;42.30;;;;;;5014537;28;20458;-67
2022/12/25 01:17:35;;;;;;;7.20;6.70;;;19.20;42.80;;;;;;5013888;28;20471;-68
2022/12/25 01:20:01;;;;;;;6.70;6.30;;;19.20;42.30;;;;;;5013993;28;20431;-66
2022/12/25 01:22:27;;;;;;;6.50;6.10;;;19.20;42.30;;;;;;5015481;28;20249;-66
2022/12/25 01:24:53;;;;;;;6.73;6.23;;;19.20;42.30;;;;;;5017685;28;20465;-65
2022/12/25 01:27:18;;;;;;;6.87;6.37;;;19.20;42.30;;;;;;5016308;28;20443;-66
2022/12/25 01:29:45;;;;;;;7.03;6.60;;;19.20;42.30;;;;;;5018267;28;20289;-71
2022/12/25 01:32:10;;;;;;;6.97;6.47;;;19.20;42.40;;;;;;5019991;28;20237;-65
2022/12/25 01:34:36;;;;;;;6.07;5.67;;;19.20;42.30;;;;;;5016149;28;20438;-65
2022/12/25 01:37:01;;;;;;;6.90;6.50;;;19.20;42.30;;;;;;5002732;28;20223;-64
2022/12/25 01:39:27;;;;;;;6.73;6.30;;;19.20;42.30;;;;;;5017885;28;20239;-71
2022/12/25 01:41:52;;;;;;;6.63;6.03;;;19.20;42.50;;;;;;5013116;28;20218;-67
2022/12/25 01:44:18;;;;;;;6.97;6.57;;;19.20;42.30;;;;;;5011413;28;20226;-67
2022/12/25 01:46:44;;;;;;;6.40;5.97;;;19.20;42.40;;;;;;5015253;28;20687;-64
2022/12/25 01:49:13;;;;;;;6.80;6.30;;;19.20;42.40;;;;;;5015949;28;20243;-65
2022/12/25 01:52:02;;;;;;;7.00;6.50;;;19.20;42.40;;;;;;5014765;28;20531;-64
2022/12/25 01:54:34;;;;;;;6.57;6.13;;;19.20;42.60;;;;;;5014355;28;20434;-64
2022/12/25 01:57:05;;;;;;;6.77;6.37;;;19.20;42.40;;;;;;5014039;28;20823;-67
2022/12/25 01:59:31;;;;;;;6.37;5.87;;;19.20;42.30;;;;;;5016792;28;21186;-65
2022/12/25 02:01:58;;;;;;;6.10;5.70;;;19.20;42.30;;;;;;5006317;28;20930;-66
2022/12/25 02:04:37;;;;;;;6.00;5.70;;;19.20;42.30;;;;;;5006586;28;20586;-66
2022/12/25 02:07:12;;;;;;;6.77;6.17;;;19.20;42.30;;;;;;5008814;28;20628;-65
2022/12/25 02:09:38;;;;;;;6.03;5.50;;;19.20;42.30;;;;;;5015205;28;20521;-66
2022/12/25 02:12:05;;;;;;;6.20;5.90;;;19.20;42.30;;;;;;5015413;28;20443;-64
2022/12/25 02:14:33;;;;;;;6.37;5.77;;;19.20;42.30;;;;;;5016107;28;20219;-64
2022/12/25 02:17:13;;;;;;;6.13;5.73;;;19.20;42.30;;;;;;5014860;28;20483;-68
2022/12/25 02:20:00;;;;;;;5.70;5.30;;;19.20;42.30;;;;;;5015036;28;20438;-65
2022/12/25 02:23:20;;;;;;;6.43;5.93;;;19.20;42.40;;;;;;5013819;28;20963;-65
2022/12/25 02:26:07;;;;;;;5.60;5.30;;;19.20;42.40;;;;;;4959594;28;20865;-66
2022/12/25 02:28:40;;;;;;;5.93;5.60;;;19.20;42.30;;;;;;5018347;28;20446;-66
2022/12/25 02:31:21;;;;;;;6.10;5.70;;;19.20;42.50;;;;;;5019887;28;20492;-67
2022/12/25 02:34:13;;;;;;;6.60;6.20;;;19.20;42.50;;;;;;5016166;28;20430;-64
2022/12/25 02:36:47;;;;;;;6.23;5.87;;;19.10;42.40;;;;;;5018389;28;20427;-67
2022/12/25 02:42:11;;;;;;;6.60;5.47;;;19.10;42.40;;;;;;5015386;28;20447;-65
2022/12/25 03:07:04;;;;;;;6.37;5.70;;;19.10;42.60;;;;;;5017424;28;20430;-66
2022/12/25 03:12:58;;;;;;;5.07;4.83;;;19.10;42.60;;;;;;5017755;28;20453;-65
2022/12/25 03:18:13;;;;;;;5.03;4.83;;;19.10;42.60;;;;;;5017990;28;20443;-66
2022/12/25 03:28:57;;;;;;;5.30;4.90;;;19.10;42.50;;;;;;5017894;28;20885;-68
2022/12/25 03:31:27;;;;;;;5.20;4.90;;;19.10;42.50;;;;;;5018475;28;20508;-66
2022/12/25 03:43:58;;;;;;;5.33;5.03;;;19.10;42.50;;;;;;5014194;28;20473;-70
2022/12/25 04:38:31;;;;;;;4.87;4.67;;;19.10;42.50;;;;;;5010605;28;20482;-65
2022/12/25 04:40:58;;;;;;;5.20;4.90;;;19.10;42.60;;;;;;5014574;28;20457;-64
2022/12/25 04:43:24;;;;;;;4.97;4.67;;;19.10;42.50;;;;;;5016585;28;21107;-68
2022/12/25 04:45:58;;;;;;;4.27;4.07;;;19.10;42.50;;;;;;5016463;28;20800;-67
2022/12/25 04:48:25;;;;;;;5.23;4.93;;;19.10;42.40;;;;;;5015872;28;20533;-71
2022/12/25 04:50:51;;;;;;;5.33;5.07;;;19.10;42.40;;;;;;5013117;28;20512;-67
2022/12/25 04:53:17;;;;;;;4.63;4.37;;;19.10;42.40;;;;;;5017391;28;20414;-71
2022/12/25 04:55:43;;;;;;;4.73;4.43;;;19.20;42.50;;;;;;5017228;28;20272;-65
2022/12/25 04:58:09;;;;;;;4.53;4.23;;;19.20;42.50;;;;;;5017702;28;20964;-64
2022/12/25 05:00:34;;;;;;;4.50;4.20;;;19.20;42.40;;;;;;5017399;28;20658;-66
2022/12/25 05:03:03;;;;;;;4.37;4.17;;;19.20;42.40;;;;;;5016663;28;20218;-66
2022/12/25 05:05:28;;;;;;;4.47;4.17;;;19.20;42.30;;;;;;5021466;28;20245;-66
2022/12/25 05:07:55;;;;;;;4.40;4.20;;;19.20;42.30;;;;;;5016336;28;20521;-67
2022/12/25 05:10:21;;;;;;;4.43;4.23;;;19.20;42.30;;;;;;5022367;28;20222;-65
2022/12/25 05:12:46;;;;;;;4.77;4.47;;;19.20;42.30;;;;;;5019245;28;20763;-66
2022/12/25 05:15:12;;;;;;;4.17;3.87;;;19.30;42.30;;;;;;5020453;28;20633;-65
2022/12/25 05:17:37;;;;;;;4.67;4.37;;;19.30;42.30;;;;;;5018632;28;20214;-65
2022/12/25 05:20:06;;;;;;;3.77;3.57;;;19.30;42.30;;;;;;5022036;28;20535;-70
2022/12/25 05:22:32;;;;;;;4.40;4.20;;;19.30;42.30;;;;;;5021584;28;20221;-69
2022/12/25 05:24:57;;;;;;;4.10;3.90;;;19.30;42.40;;;;;;5021857;28;20463;-67
2022/12/25 05:27:23;;;;;;;4.43;4.13;;;19.30;42.30;;;;;;5020363;28;20246;-67
2022/12/25 05:29:48;;;;;;;4.60;4.40;;;19.30;42.30;;;;;;5017465;28;20211;-70
2022/12/25 05:32:14;;;;;;;4.73;4.50;;;19.30;42.30;;;;;;5021438;28;20222;-68
2022/12/25 05:34:40;;;;;;;4.33;4.13;;;19.30;42.30;;;;;;5020959;28;20219;-65
2022/12/25 05:37:05;;;;;;;4.07;3.87;;;19.30;42.30;;;;;;5018587;28;20302;-65
2022/12/25 05:39:31;;;;;;;4.57;4.30;;;19.30;42.30;;;;;;5020817;28;20230;-70
2022/12/25 05:41:56;;;;;;;4.23;4.03;;;19.30;42.30;;;;;;5018656;28;20265;-67
2022/12/25 05:44:22;;;;;;;4.47;4.20;;;19.30;42.30;;;;;;5020102;28;20234;-64
2022/12/25 05:46:47;;;;;;;3.90;3.70;;;19.30;42.20;;;;;;5019060;28;20222;-64
2022/12/25 05:49:13;;;;;;;3.90;3.70;;;19.30;42.30;;;;;;5017298;28;22769;-67
2022/12/25 05:51:39;;;;;;;3.77;3.57;;;19.30;42.30;;;;;;5014645;28;20232;-66
2022/12/25 05:54:04;;;;;;;4.17;3.97;;;19.30;42.30;;;;;;5017003;28;20225;-67
2022/12/25 05:56:30;;;;;;;3.90;3.70;;;19.30;42.30;;;;;;5020104;28;20488;-68
2022/12/25 05:58:55;;;;;;;3.70;3.50;;;19.30;42.30;;;;;;5018359;28;20238;-67
2022/12/25 06:01:24;;;;;;;4.13;3.90;;;19.30;42.30;;;;;;5018362;28;20604;-65
2022/12/25 06:03:49;;;;;;;3.90;3.70;;;19.30;42.30;;;;;;5019581;28;20229;-69
2022/12/25 06:06:15;;;;;;;3.90;3.70;;;19.30;42.30;;;;;;5024643;28;20448;-65
2022/12/25 06:08:40;;;;;;;4.17;3.93;;;19.30;42.30;;;;;;5023322;28;20309;-67
2022/12/25 06:11:08;;;;;;;3.57;3.37;;;19.30;42.30;;;;;;5014146;28;20230;-65
2022/12/25 06:13:34;;;;;;;4.50;3.77;;;19.30;42.30;;;;;;5018249;28;20686;-65
2022/12/25 06:16:04;;;;;;;3.77;3.47;;;19.30;42.30;;;;;;5012346;28;20451;-65
2022/12/25 06:18:30;;;;;;;3.83;3.63;;;19.30;42.30;;;;;;5021004;28;21078;-67
2022/12/25 06:20:55;;;;;;;3.60;3.40;;;19.30;42.30;;;;;;5014915;28;20513;-66
2022/12/25 06:23:21;;;;;;;3.90;3.70;;;19.30;42.30;;;;;;5019522;28;20699;-65
2022/12/25 06:25:46;;;;;;;3.90;3.70;;;19.30;42.30;;;;;;5019760;28;20226;-68
2022/12/25 06:28:12;;;;;;;4.00;3.73;;;19.30;42.30;;;;;;5014599;28;20329;-65
2022/12/25 06:30:37;;;;;;;3.70;3.50;;;19.30;42.30;;;;;;5017323;28;20210;-64
2022/12/25 06:33:03;;;;;;;3.70;3.50;;;19.30;42.30;;;;;;5020546;28;20230;-68
2022/12/25 06:35:28;;;;;;;3.33;3.13;;;19.30;42.30;;;;;;5016738;28;20912;-66
2022/12/25 06:37:55;;;;;;;3.27;3.10;;;19.30;42.30;;;;;;5019676;28;20345;-64
2022/12/25 06:40:20;;;;;;;3.50;3.30;;;19.30;42.30;;;;;;5015646;28;20227;-68
2022/12/25 06:42:46;;;;;;;3.77;3.47;;;19.30;42.30;;;;;;5018847;28;20802;-64
2022/12/25 06:45:12;;;;;;;3.53;3.33;;;19.30;42.30;;;;;;5012081;28;20222;-64
2022/12/25 06:47:37;;;;;;;3.70;3.50;;;19.30;42.30;;;;;;5017752;28;20318;-70
2022/12/25 06:50:04;;;;;;;3.10;3.00;;;19.30;42.30;;;;;;5021101;28;20219;-65
2022/12/25 06:52:33;;;;;;;4.10;3.83;;;19.30;42.30;;;;;;5017010;28;20364;-65
2022/12/25 06:54:59;;;;;;;3.13;2.93;;;19.30;42.30;;;;;;5023502;28;20430;-65
2022/12/25 06:57:24;;;;;;;3.90;3.70;;;19.30;42.30;;;;;;5020095;28;20471;-66
2022/12/25 06:59:50;;;;;;;3.50;3.30;;;19.30;42.30;;;;;;5020884;28;20239;-67
2022/12/25 07:02:20;;;;;;;3.20;3.10;;;19.30;42.30;;;;;;5024980;28;20697;-66
2022/12/25 07:04:46;;;;;;;3.40;3.20;;;19.30;42.20;;;;;;5018266;28;20222;-67
2022/12/25 07:07:12;;;;;;;3.40;3.20;;;19.30;42.20;;;;;;5018266;28;20455;-66
2022/12/25 07:09:41;;;;;;;3.60;3.40;;;19.30;42.30;;;;;;5020268;28;20446;-66
2022/12/25 07:12:14;;;;;;;3.60;3.40;;;19.30;42.30;;;;;;5015788;28;20439;-65
2022/12/25 07:14:40;;;;;;;3.50;3.30;;;19.30;42.30;;;;;;5016210;28;20783;-66
2022/12/25 07:17:05;;;;;;;4.17;3.80;;;19.30;42.30;;;;;;5021529;28;20435;-66
2022/12/25 07:19:31;;;;;;;3.20;3.00;;;19.30;42.30;;;;;;5019490;28;20254;-66
2022/12/25 07:21:57;;;;;;;3.50;3.30;;;19.30;43.10;;;;;;5013556;28;20318;-67
2022/12/25 07:24:22;;;;;;;2.97;2.77;;;19.30;42.30;;;;;;5017256;28;20227;-65
2022/12/25 07:26:49;;;;;;;2.93;2.73;;;19.30;42.30;;;;;;5019440;28;20593;-69
2022/12/25 07:29:15;;;;;;;2.93;2.73;;;19.30;42.30;;;;;;5007830;28;20272;-67
2022/12/25 07:31:41;;;;;;;3.60;3.40;;;19.30;42.30;;;;;;5013402;28;20426;-68
2022/12/25 07:34:06;;;;;;;3.40;3.20;;;19.30;42.30;;;;;;5020614;28;20698;-66
2022/12/25 07:36:32;;;;;;;3.40;3.20;;;19.30;42.30;;;;;;5004257;28;20309;-66
2022/12/25 07:38:57;;;;;;;3.07;2.87;;;19.30;42.30;;;;;;5017453;28;20305;-63
2022/12/25 07:41:23;;;;;;;3.73;3.30;;;19.30;42.30;;;;;;5008941;28;20226;-65
2022/12/25 07:43:50;;;;;;;3.00;2.90;;;19.30;42.20;;;;;;5001195;28;20222;-65
2022/12/25 07:46:16;;;;;;;3.50;3.00;;;19.30;42.30;;;;;;5008761;28;20215;-70
2022/12/25 07:48:42;;;;;;;2.70;2.60;;;19.30;42.20;;;;;;5016557;28;20430;-64
2022/12/25 07:51:11;;;;;;;2.80;2.60;;;19.30;42.30;;;;;;5019034;28;20674;-65
2022/12/25 07:53:37;;;;;;;3.90;3.03;;;19.30;43.10;;;;;;5013545;28;20276;-67
2022/12/25 07:56:10;;;;;;;2.67;2.57;;;19.30;43.10;;;;;;5015992;28;20491;-71
2022/12/25 07:58:36;;;;;;;3.17;2.97;;;19.30;42.20;;;;;;5016109;28;20482;-67
2022/12/25 08:01:13;;;;;;;3.40;3.20;;;19.30;42.30;;;;;;5013294;28;20573;-70
2022/12/25 08:03:39;;;;;;;2.97;2.77;;;19.30;42.30;;;;;;5012599;28;20734;-65
2022/12/25 08:06:06;;;;;;;2.90;2.70;;;19.30;42.30;;;;;;5010433;28;20527;-68
2022/12/25 08:08:33;;;;;;;2.60;2.50;;;19.30;42.30;;;;;;5015258;28;20222;-67
2022/12/25 08:10:59;;;;;;;3.17;2.97;;;19.30;42.30;;;;;;5013920;28;20423;-67
2022/12/25 08:13:24;;;;;;;2.70;2.50;;;19.30;42.20;;;;;;4995325;28;20436;-64
2022/12/25 08:15:55;;;;;;;3.30;3.10;;;19.30;42.20;;;;;;5011251;28;20222;-65
2022/12/25 08:18:20;;;;;;;3.00;2.90;;;19.30;42.20;;;;;;5013655;28;20231;-64
2022/12/25 08:20:46;;;;;;;2.73;2.57;;;19.30;42.20;;;;;;5013087;28;20868;-65
2022/12/25 08:23:11;;;;;;;2.87;2.67;;;19.30;42.20;;;;;;5014550;28;20617;-66
2022/12/25 08:25:37;;;;;;;3.20;3.00;;;19.30;42.20;;;;;;5016256;28;20539;-67
2022/12/25 08:28:03;;;;;;;2.63;2.53;;;19.30;42.20;;;;;;5011947;28;20237;-66
2022/12/25 08:30:28;;;;;;;3.03;2.83;;;19.30;42.20;;;;;;5007443;28;20361;-65
2022/12/25 08:32:54;;;;;;;2.73;2.53;;;19.30;42.20;;;;;;5013217;28;20219;-66
2022/12/25 08:35:19;;;;;;;2.90;2.70;;;19.30;42.20;;;;;;4999142;28;20306;-68
2022/12/25 08:37:45;;;;;;;2.77;2.67;;;19.30;42.20;;;;;;5004311;28;20253;-65
2022/12/25 08:40:11;;;;;;;7.33;3.43;;;19.30;42.20;;;;;;5012119;28;20234;-65
2022/12/25 08:42:37;;;;;;;2.83;2.40;;;19.30;42.20;;;;;;5012916;28;20306;-64
2022/12/25 08:45:02;;;;;;;2.50;2.30;;;19.30;42.20;;;;;;5009647;28;20470;-65
2022/12/25 08:47:28;;;;;;;2.87;2.30;;;19.30;42.20;;;;;;5008110;28;20223;-64
2022/12/25 08:49:53;;;;;;;3.37;2.77;;;19.30;42.20;;;;;;5013701;28;20218;-64
2022/12/25 08:52:19;;;;;;;3.33;2.63;;;19.30;42.20;;;;;;5017777;28;20225;-63
2022/12/25 08:54:45;;;;;;;2.83;2.40;;;19.30;42.10;;;;;;5013680;28;20222;-64
2022/12/25 08:57:11;;;;;;;2.73;2.53;;;19.30;42.20;;;;;;5016202;28;20257;-63
2022/12/25 08:59:36;;;;;;;2.77;2.57;;;19.30;42.10;;;;;;5007391;28;21212;-63
2022/12/25 09:02:02;;;;;;;2.23;2.03;;;19.30;42.10;;;;;;5017049;28;20218;-65
2022/12/25 09:04:28;;;;;;;2.40;2.30;;;19.30;42.20;;;;;;5015189;28;20276;-64
2022/12/25 09:06:53;;;;;;;3.10;2.60;;;19.30;42.20;;;;;;5008587;28;20229;-63
2022/12/25 09:09:19;;;;;;;2.57;2.40;;;19.30;42.20;;;;;;5019601;28;20738;-63
2022/12/25 09:11:44;;;;;;;2.40;2.30;;;19.30;42.20;;;;;;5016596;28;20277;-63
2022/12/25 09:14:12;;;;;;;2.70;2.60;;;19.30;42.20;;;;;;5021055;28;20255;-63
2022/12/25 09:16:38;;;;;;;2.40;2.30;;;19.30;42.20;;;;;;5019270;28;20222;-64
2022/12/25 09:19:03;;;;;;;3.00;2.70;;;19.30;42.20;;;;;;5013279;28;20522;-63
2022/12/25 09:21:29;;;;;;;2.70;2.50;;;19.30;42.20;;;;;;5018190;28;20214;-64
2022/12/25 09:23:54;;;;;;;2.90;2.70;;;19.30;42.20;;;;;;5016954;28;20272;-63
2022/12/25 09:26:20;;;;;;;2.83;2.33;;;19.30;42.20;;;;;;5015285;28;20301;-65
2022/12/25 09:28:46;;;;;;;3.10;2.90;;;19.30;42.20;;;;;;5016934;28;20393;-69
2022/12/25 09:31:11;;;;;;;2.90;2.70;;;19.30;42.30;;;;;;5011203;28;20273;-64
2022/12/25 09:33:37;;;;;;;3.13;2.50;;;19.30;42.20;;;;;;5017000;28;20229;-63
2022/12/25 09:36:05;;;;;;;3.00;2.90;;;19.30;42.30;;;;;;5013584;28;20337;-70
2022/12/25 09:38:31;;;;;;;2.70;2.60;;;19.30;42.30;;;;;;5016522;28;20231;-64
2022/12/25 09:41:15;;;;;;;2.60;2.50;;;19.30;42.30;;;;;;5012848;28;20442;-65
2022/12/25 09:43:53;;;;;;;3.03;2.83;;;19.30;42.30;;;;;;5014556;28;21069;-65
2022/12/25 09:46:25;;;;;;;2.93;2.73;;;19.30;42.30;;;;;;5013213;28;21223;-68
2022/12/25 09:49:20;;;;;;;2.63;2.53;;;19.30;42.30;;;;;;5020480;28;20463;-64
2022/12/25 09:51:51;;;;;;;3.37;2.83;;;19.30;42.40;;;;;;5013579;28;20479;-64
2022/12/25 09:54:29;;;;;;;3.57;3.10;;;19.30;42.40;;;;;;5022322;28;20452;-64
2022/12/25 09:56:54;;;;;;;2.67;2.40;;;19.30;42.50;;;;;;5020635;28;20977;-64
2022/12/25 09:59:24;;;;;;;3.07;2.87;;;19.30;42.50;;;;;;5020053;28;20552;-67
2022/12/25 10:02:22;;;;;;;3.03;2.73;;;19.30;42.50;;;;;;5020362;28;20619;-64
2022/12/25 10:05:25;;;;;;;2.70;2.60;;;19.30;42.60;;;;;;5016895;28;20480;-63
2022/12/25 10:07:53;;;;;;;2.97;2.77;;;19.30;42.50;;;;;;5013511;28;20422;-65
2022/12/25 10:10:27;;;;;;;2.87;2.67;;;19.30;42.60;;;;;;5015961;28;20452;-68
2022/12/25 10:13:05;;;;;;;3.30;2.97;;;19.30;42.60;;;;;;5016422;28;20477;-66
2022/12/25 10:16:12;;;;;;;7.27;3.30;;;19.30;42.60;;;;;;5020513;28;20448;-65
2022/12/25 10:18:43;;;;;;;3.63;3.20;;;19.30;42.70;;;;;;4991777;28;20585;-63
2022/12/25 10:21:13;;;;;;;2.90;2.70;;;19.30;42.70;;;;;;5022173;28;20459;-63
2022/12/25 10:23:44;;;;;;;3.83;3.53;;;19.30;42.70;;;;;;5022084;28;20480;-63
2022/12/25 10:26:16;;;;;;;3.03;2.83;;;19.30;42.70;;;;;;5013022;28;20785;-63
2022/12/25 10:28:44;;;;;;;3.77;3.30;;;19.30;42.80;;;;;;5018963;28;20444;-63
2022/12/25 10:31:28;;;;;;;2.73;2.53;;;19.30;42.80;;;;;;5020701;28;20430;-64
2022/12/25 10:33:54;;;;;;;3.33;3.10;;;19.30;42.80;;;;;;5019899;28;20989;-64
2022/12/25 10:36:23;;;;;;;2.67;2.57;;;19.30;43.20;;;;;;5018083;28;20456;-67
2022/12/25 10:38:49;;;;;;;2.90;2.70;;;19.30;42.90;;;;;;5018654;28;20238;-65
2022/12/25 10:41:38;;;;;;;2.93;2.73;;;19.30;42.90;;;;;;5016707;28;20464;-66
2022/12/25 10:44:19;;;;;;;3.23;2.93;;;19.30;42.90;;;;;;5021889;28;20879;-64
2022/12/25 10:46:52;;;;;;;2.97;2.77;;;19.30;42.90;;;;;;5016229;28;20419;-65
2022/12/25 10:49:21;;;;;;;2.50;2.27;;;19.30;42.90;;;;;;5016427;28;20444;-66
2022/12/25 10:51:47;;;;;;;2.97;2.70;;;19.30;43.00;;;;;;5016242;28;20816;-63
2022/12/25 10:54:34;;;;;;;2.70;2.50;;;19.30;43.00;;;;;;5019252;28;20448;-63
2022/12/25 10:57:07;;;;;;;2.80;2.63;;;19.30;43.00;;;;;;5017387;28;20222;-63
2022/12/25 10:59:40;;;;;;;3.87;3.60;;;19.30;43.10;;;;;;5019707;28;20443;-67
2022/12/25 11:02:22;;;;;;;3.23;3.03;;;19.20;42.90;;;;;;5014908;28;20538;-64
2022/12/25 11:04:48;;;;;;;3.20;2.90;;;19.30;43.00;;;;;;5013870;28;20410;-65
2022/12/25 11:07:16;;;;;;;2.77;2.63;;;19.20;43.00;;;;;;5019260;28;20934;-62
2022/12/25 11:09:49;;;;;;;2.93;2.73;;;19.20;43.00;;;;;;5020673;28;20243;-63
2022/12/25 11:12:18;;;;;;;2.93;2.73;;;19.30;43.10;;;;;;5020839;28;20718;-64
2022/12/25 11:14:53;;;;;;;3.27;2.97;;;19.20;43.00;;;;;;5018143;28;20993;-66
2022/12/25 11:17:22;;;;;;;3.10;2.93;;;19.30;43.10;;;;;;5018649;28;20453;-69
2022/12/25 11:19:57;;;;;;;3.20;2.80;;;19.30;43.10;;;;;;5022115;28;20570;-63
2022/12/25 11:22:23;;;;;;;3.03;2.73;;;19.20;43.00;;;;;;5015097;28;20564;-63
2022/12/25 11:24:49;;;;;;;3.40;3.20;;;19.20;43.10;;;;;;5017921;28;20812;-64
2022/12/25 11:27:29;;;;;;;3.10;2.90;;;19.20;43.00;;;;;;5019471;28;21046;-65
2022/12/25 11:30:00;;;;;;;2.93;2.73;;;19.30;43.10;;;;;;5020024;28;20709;-65
2022/12/25 11:32:37;;;;;;;2.50;2.37;;;19.20;43.80;;;;;;5016616;28;20488;-62
2022/12/25 11:35:10;;;;;;;3.10;2.90;;;19.30;43.20;;;;;;5016627;28;20513;-64
2022/12/25 11:37:43;;;;;;;2.40;2.30;;;19.30;43.20;;;;;;5016518;28;20459;-63
2022/12/25 11:40:28;;;;;;;2.80;2.60;;;19.30;43.10;;;;;;5017046;28;20574;-61
2022/12/25 11:43:00;;;;;;;3.40;3.00;;;19.30;43.00;;;;;;5018586;28;20455;-63
2022/12/25 11:45:33;;;;;;;2.70;2.50;;;19.30;43.10;;;;;;5015768;28;20476;-64
2022/12/25 11:48:14;;;;;;;3.43;3.13;;;19.30;43.10;;;;;;5019656;28;20423;-63
2022/12/25 11:50:53;;;;;;;3.07;2.87;;;19.30;43.00;;;;;;5013598;28;20460;-63
2022/12/25 11:53:28;;;;;;;3.10;2.90;;;19.30;43.10;;;;;;5017872;28;20478;-66
2022/12/25 11:55:59;;;;;;;4.10;2.20;;;19.30;43.00;;;;;;5015855;28;20568;-64
2022/12/25 11:58:36;;;;;;;2.83;2.63;;;19.30;43.10;;;;;;5013552;28;21083;-64
2022/12/25 12:01:07;;;;;;;6.70;2.73;;;19.30;43.10;;;;;;5015851;28;20443;-64
2022/12/25 12:03:40;;;;;;;3.93;3.10;;;19.30;43.10;;;;;;5014189;28;20545;-66
2022/12/25 12:06:15;;;;;;;4.37;3.13;;;19.30;43.20;;;;;;5017169;28;20828;-67
2022/12/25 12:08:42;;;;;;;2.47;2.37;;;19.30;43.10;;;;;;5019342;28;20455;-64
2022/12/25 12:11:42;;;;;;;3.23;3.03;;;19.30;43.20;;;;;;5018481;28;20524;-63
2022/12/25 12:14:28;;;;;;;2.60;2.30;;;19.30;43.20;;;;;;5016119;28;20520;-66
2022/12/25 12:16:53;;;;;;;2.93;2.73;;;19.30;43.20;;;;;;5011828;28;20427;-67
2022/12/25 12:19:27;;;;;;;4.27;3.17;;;19.30;43.20;;;;;;5004273;28;21007;-65
2022/12/25 12:21:57;;;;;;;3.20;2.83;;;19.30;43.20;;;;;;5020895;28;20233;-66
2022/12/25 12:24:27;;;;;;;3.23;2.70;;;19.30;43.20;;;;;;5009975;28;20465;-64
2022/12/25 12:27:26;;;;;;;2.30;2.10;;;19.30;43.30;;;;;;5008195;28;20780;-64
2022/12/25 12:29:56;;;;;;;7.43;2.87;;;19.30;43.20;;;;;;4974109;28;20446;-65
2022/12/25 12:32:41;;;;;;;3.70;2.50;;;19.30;43.30;;;;;;5009571;28;20463;-64
2022/12/25 12:35:19;;;;;;;3.43;2.70;;;19.30;43.30;;;;;;5015337;28;20558;-64
2022/12/25 12:37:52;;;;;;;6.40;2.87;;;19.30;43.30;;;;;;5014760;28;20917;-63
2022/12/25 12:41:00;;;;;;;2.97;2.77;;;19.30;43.30;;;;;;5013408;28;20457;-64
2022/12/25 12:43:56;;;;;;;3.70;2.37;;;19.30;43.30;;;;;;4980297;28;20464;-64
2022/12/25 12:46:27;;;;;;;8.10;2.80;;;19.30;43.30;;;;;;5000569;28;20507;-67
2022/12/25 12:49:05;;;;;;;3.53;2.70;;;19.30;43.30;;;;;;5013431;28;21101;-63
2022/12/25 12:51:34;;;;;;;3.50;2.43;;;19.30;43.40;;;;;;5004027;28;20437;-64
2022/12/25 12:54:21;;;;;;;3.60;2.10;;;19.30;43.30;;;;;;5017052;28;21029;-63
2022/12/25 12:56:59;;;;;;;3.60;2.30;;;19.30;43.10;;;;;;5014096;28;20993;-64
2022/12/25 12:59:26;;;;;;;18.03;4.87;;;19.30;42.90;;;;;;5015330;28;20556;-64
2022/12/25 13:02:19;;;;;;;19.93;4.90;;;19.30;42.90;;;;;;5011313;28;20950;-64
2022/12/25 13:05:04;;;;;;;11.00;3.10;;;19.30;42.90;;;;;;5010036;28;21021;-64
2022/12/25 13:08:01;;;;;;;13.20;4.07;;;19.30;42.90;;;;;;5008651;28;20499;-64
2022/12/25 13:10:31;;;;;;;17.73;3.70;;;19.30;42.90;;;;;;5009206;28;20495;-63
2022/12/25 13:13:15;;;;;;;12.70;3.97;;;19.30;43.10;;;;;;5016457;28;20456;-62
2022/12/25 13:15:46;;;;;;;14.20;3.40;;;19.30;43.00;;;;;;5019000;28;20448;-62
2022/12/25 13:18:13;;;;;;;3.70;2.60;;;19.40;43.20;;;;;;5020692;28;20962;-67
2022/12/25 13:20:53;;;;;;;2.87;2.50;;;19.40;43.20;;;;;;5013292;28;20449;-63
2022/12/25 13:23:33;;;;;;;9.93;2.90;;;19.40;42.90;;;;;;5020932;28;20570;-65
2022/12/25 13:26:13;;;;;;;16.73;5.93;;;19.40;42.70;;;;;;5024385;28;20461;-62
2022/12/25 13:28:38;;;;;;;33.93;9.10;;;19.40;42.50;;;;;;5023741;28;20456;-65
2022/12/25 13:31:16;;;;;;;56.67;11.20;;;19.40;42.30;;;;;;5024376;28;20472;-65
2022/12/25 13:33:58;;;;;;;47.87;13.00;;;19.50;42.30;;;;;;5020445;28;20223;-62
2022/12/25 13:36:27;;;;;;;84.47;21.27;;;19.50;42.10;;;;;;5020053;28;20494;-67
2022/12/25 13:38:55;;;;;;;56.63;12.87;;;19.50;42.20;;;;;;5019513;28;20446;-66
2022/12/25 13:44:19;;;;;;;46.57;13.50;;;19.50;42.00;;;;;;5023435;28;20531;-62
2022/12/25 13:46:45;;;;;;;34.23;11.77;;;19.50;42.00;;;;;;5018191;28;20463;-61
2022/12/25 13:49:16;;;;;;;22.93;9.17;;;19.60;42.30;;;;;;5021282;28;20452;-62
2022/12/25 13:51:42;;;;;;;25.37;8.73;;;19.60;42.30;;;;;;5019802;28;20230;-62
2022/12/25 13:54:11;;;;;;;22.97;7.80;;;19.60;42.40;;;;;;5019340;28;20795;-61
2022/12/25 13:56:48;;;;;;;14.77;7.70;;;19.60;42.50;;;;;;5020160;28;20227;-62
2022/12/25 13:59:17;;;;;;;16.00;6.53;;;19.60;42.50;;;;;;5020293;28;20460;-62
2022/12/25 14:01:44;;;;;;;14.10;5.63;;;19.60;42.60;;;;;;5013464;28;20482;-67
2022/12/25 14:04:15;;;;;;;10.17;5.50;;;19.70;42.70;;;;;;5016790;28;20532;-65
2022/12/25 14:06:41;;;;;;;10.20;5.50;;;19.70;42.70;;;;;;5019987;28;20506;-62
2022/12/25 14:09:10;;;;;;;18.03;6.70;;;19.70;42.80;;;;;;5020489;28;20634;-60
2022/12/25 14:11:36;;;;;;;7.43;5.23;;;19.70;42.90;;;;;;5012944;28;20223;-60
2022/12/25 14:14:07;;;;;;;10.97;5.70;;;19.60;42.90;;;;;;5014509;28;20438;-63
2022/12/25 14:16:33;;;;;;;8.07;4.57;;;19.60;42.90;;;;;;5014894;28;21909;-61
2022/12/25 14:19:01;;;;;;;9.37;5.57;;;19.60;43.00;;;;;;5018554;28;20933;-61
2022/12/25 14:21:29;;;;;;;7.23;4.93;;;19.60;43.00;;;;;;5015457;28;20772;-60
2022/12/25 14:23:55;;;;;;;5.70;5.07;;;19.70;43.20;;;;;;5020050;28;20766;-61
2022/12/25 14:26:26;;;;;;;5.47;4.47;;;19.60;43.10;;;;;;5017571;28;20981;-60
2022/12/25 14:29:08;;;;;;;6.00;4.27;;;19.60;43.10;;;;;;5017299;28;20574;-65
2022/12/25 14:31:35;;;;;;;4.40;3.73;;;19.60;43.10;;;;;;5018842;28;20976;-60
2022/12/25 14:34:03;;;;;;;4.60;3.90;;;19.60;43.20;;;;;;5014693;28;20419;-61
2022/12/25 14:36:30;;;;;;;5.03;3.50;;;19.60;43.20;;;;;;5011085;28;20459;-60
2022/12/25 14:39:02;;;;;;;5.30;3.93;;;19.60;43.20;;;;;;5013724;28;20551;-62
2022/12/25 14:41:33;;;;;;;4.70;3.80;;;19.60;43.20;;;;;;5009837;28;20777;-65
2022/12/25 14:44:01;;;;;;;4.73;3.43;;;19.60;43.20;;;;;;5011269;28;20473;-61
2022/12/25 14:46:30;;;;;;;3.57;3.27;;;19.50;43.20;;;;;;5012541;28;20978;-61
2022/12/25 14:49:05;;;;;;;3.00;2.60;;;19.50;43.10;;;;;;4987304;28;20895;-66